Sea Hog — WDC7997 — position and weather

sailwx.info

Track history (hours):
 
Tides and Currents Weather Stations Pressure Air Temp Water Temp Dewpoint Dewpoint Depression Visibility Wind Speed Wind Dir Waves Ship Positions

Sea Hog

Owner: GARBER BROS INC., MORGAN CITY, LA. More information available from US FCC via Universal Licensing System and Coast Guard Vessel Documentation Center.

Last reported at 2018-Jan-20 02:31 UTC. Time now 2018-Jan-20 02:58 UTC.
Position N 30°05' W 093°20'.

MMSI: 367080090.

Date/timePositionNaut miles runAvg speedWind from/ knotsBaromVisibWave heightAir tempDewpointWater temp
2018-Jan-20 02:31N 30°05' W 093°20'2 4.9
2018-Jan-20 02:01N 30°05' W 093°18'2 4.5
2018-Jan-20 01:31N 30°04' W 093°16'4 7.3
2018-Jan-20 01:01N 30°01' W 093°14'3 6.7
2018-Jan-20 00:30N 29°58' W 093°11'48 7.2
2018-Jan-19 17:48N 29°49' W 092°17'2 7.1
2018-Jan-19 17:31N 29°48' W 092°14'2 3.8
2018-Jan-19 17:01N 29°47' W 092°12'1 2.8
2018-Jan-19 16:31N 29°47' W 092°11'4 7.2
2018-Jan-19 15:59N 29°48' W 092°07'4 7.8
2018-Jan-19 15:31N 29°49' W 092°03'  
Track history (hours):
 
Tides and Currents Weather Stations Pressure Air Temp Water Temp Dewpoint Dewpoint Depression Visibility Wind Speed Wind Dir Waves Ship Positions

Sea Hog

Owner: GARBER BROS INC., MORGAN CITY, LA. More information available from US FCC via Universal Licensing System and Coast Guard Vessel Documentation Center.

Last reported at 2018-Jan-20 02:31 UTC. Time now 2018-Jan-20 02:58 UTC.
Position N 30°05' W 093°20'.

MMSI: 367080090.

Date/timePositionNaut miles runAvg speedWind from/ knotsBaromVisibWave heightAir tempDewpointWater temp
2018-Jan-20 02:31N 30°05' W 093°20'2 4.9
2018-Jan-20 02:01N 30°05' W 093°18'2 4.5
2018-Jan-20 01:31N 30°04' W 093°16'4 7.3
2018-Jan-20 01:01N 30°01' W 093°14'3 6.7
2018-Jan-20 00:30N 29°58' W 093°11'48 7.2
2018-Jan-19 17:48N 29°49' W 092°17'2 7.1
2018-Jan-19 17:31N 29°48' W 092°14'2 3.8
2018-Jan-19 17:01N 29°47' W 092°12'1 2.8
2018-Jan-19 16:31N 29°47' W 092°11'4 7.2
2018-Jan-19 15:59N 29°48' W 092°07'4 7.8
2018-Jan-19 15:31N 29°49' W 092°03'  

Dump ship's entire track history